Time;durP1;ratioP1;P1;durP2;ratioP2;P2;SDS_P1;SDS_P2;PMS_P1;PMS_P2;Temp;Humidity;BMP_temperature;BMP_pressure;BME280_temperature;BME280_humidity;BME280_pressure;Samples;Min_cycle;Max_cycle;Signal;HPM_P1;HPM_P2
2023/09/04 00:03:46;;;;;;;6.00;2.85;;;15.80;1.00;;;;;;10538007;28;20208;-89
2023/09/04 00:09:07;;;;;;;4.28;2.72;;;15.70;1.00;;;;;;10537475;28;20202;-86
2023/09/04 00:14:29;;;;;;;4.50;2.38;;;15.60;99.90;;;;;;10551209;28;20274;-88
2023/09/04 00:19:50;;;;;;;3.80;2.30;;;15.50;1.00;;;;;;10565332;28;20398;-83
2023/09/04 00:25:12;;;;;;;4.85;3.20;;;15.50;31.00;;;;;;10565064;28;20199;-88
2023/09/04 00:30:33;;;;;;;5.18;3.00;;;15.30;99.90;;;;;;10565462;28;20196;-83
2023/09/04 00:35:56;;;;;;;3.58;2.20;;;15.20;99.90;;;;;;10556436;28;20193;-88
2023/09/04 00:41:19;;;;;;;2.67;2.15;;;15.20;1.00;;;;;;10548913;28;20568;-89
2023/09/04 00:46:41;;;;;;;3.72;2.30;;;15.10;99.90;;;;;;10550144;28;20197;-88
2023/09/04 00:52:03;;;;;;;3.00;2.42;;;15.00;99.90;;;;;;10549241;28;20415;-87
2023/09/04 00:57:26;;;;;;;3.65;2.15;;;14.90;99.90;;;;;;10563899;28;20215;-84
2023/09/04 01:02:48;;;;;;;4.18;2.33;;;14.90;1.00;;;;;;10549793;28;20189;-86
2023/09/04 01:08:09;;;;;;;4.10;2.05;;;14.90;1.00;;;;;;10535262;28;20239;-87
2023/09/04 01:13:40;;;;;;;4.53;2.63;;;14.90;1.00;;;;;;10549445;28;20193;-82
2023/09/04 01:19:02;;;;;;;4.55;2.05;;;14.90;1.00;;;;;;10548370;28;20291;-79
2023/09/04 01:24:23;;;;;;;3.42;2.15;;;15.00;1.00;;;;;;10562160;28;20213;-79
2023/09/04 01:29:50;;;;;;;5.25;2.50;;;15.10;1.00;;;;;;10548603;28;20280;-80
2023/09/04 01:35:14;;;;;;;4.70;2.50;;;15.20;1.00;;;;;;10547767;28;20188;-79
2023/09/04 01:40:35;;;;;;;2.65;2.22;;;15.20;27.60;;;;;;10533206;28;20231;-81
2023/09/04 01:45:57;;;;;;;5.68;2.78;;;15.30;42.90;;;;;;10547250;28;20198;-80
2023/09/04 01:51:18;;;;;;;5.28;2.42;;;15.30;44.80;;;;;;10560801;28;20201;-81
2023/09/04 01:56:40;;;;;;;3.53;2.40;;;15.30;99.90;;;;;;10532639;28;20216;-80
2023/09/04 02:02:01;;;;;;;4.85;2.22;;;15.30;1.00;;;;;;10546857;28;20193;-80
2023/09/04 02:07:22;;;;;;;3.78;1.90;;;15.20;1.00;;;;;;10561314;28;20197;-79
2023/09/04 02:12:43;;;;;;;3.40;1.95;;;15.10;1.00;;;;;;10532795;28;20204;-79
2023/09/04 02:18:05;;;;;;;3.50;2.25;;;15.10;1.00;;;;;;10546105;28;20250;-80
2023/09/04 02:23:26;;;;;;;3.70;2.53;;;15.20;1.00;;;;;;10560472;28;20198;-79
2023/09/04 02:28:47;;;;;;;3.63;2.30;;;15.20;1.00;;;;;;10546555;28;20205;-80
2023/09/04 02:34:08;;;;;;;5.53;3.10;;;15.30;1.00;;;;;;10560632;28;20203;-80
2023/09/04 02:39:29;;;;;;;4.28;3.50;;;15.40;1.00;;;;;;10561039;28;20603;-80
2023/09/04 02:44:51;;;;;;;4.47;3.40;;;15.40;1.00;;;;;;10560085;28;20242;-80
2023/09/04 02:50:12;;;;;;;3.38;2.60;;;15.40;1.00;;;;;;10545803;28;20205;-79
2023/09/04 02:55:33;;;;;;;3.65;2.17;;;15.50;1.00;;;;;;10539604;28;20269;-81
2023/09/04 03:00:54;;;;;;;3.38;2.05;;;15.50;1.00;;;;;;10568050;28;20246;-81
2023/09/04 03:06:19;;;;;;;5.03;2.10;;;15.50;7.00;;;;;;10568059;28;20193;-80
2023/09/04 03:11:40;;;;;;;4.88;2.67;;;15.50;1.00;;;;;;10553581;28;20205;-80
2023/09/04 03:17:04;;;;;;;3.63;2.20;;;15.50;1.00;;;;;;10567307;28;20245;-81
2023/09/04 03:22:27;;;;;;;8.02;4.20;;;15.50;1.00;;;;;;10553381;28;20193;-79
2023/09/04 03:27:49;;;;;;;5.50;3.33;;;15.40;1.00;;;;;;10552350;28;20214;-82
2023/09/04 03:33:13;;;;;;;5.70;3.20;;;15.50;21.30;;;;;;10538643;28;20200;-80
2023/09/04 03:38:34;;;;;;;3.40;2.55;;;15.50;39.70;;;;;;10566456;28;20549;-80
2023/09/04 03:43:55;;;;;;;5.47;2.70;;;15.50;23.90;;;;;;10551861;28;20200;-79
2023/09/04 03:49:16;;;;;;;4.47;2.50;;;15.40;99.90;;;;;;10566069;28;20526;-81
2023/09/04 03:54:38;;;;;;;5.13;2.55;;;15.40;99.90;;;;;;10537439;28;20223;-82
2023/09/04 03:59:59;;;;;;;6.25;2.53;;;15.40;99.90;;;;;;10565588;28;20217;-84
2023/09/04 04:05:20;;;;;;;5.43;2.30;;;15.40;99.90;;;;;;10565390;28;20189;-80
2023/09/04 04:10:41;;;;;;;4.35;2.90;;;15.40;99.90;;;;;;10551024;28;20289;-83
2023/09/04 04:16:03;;;;;;;5.30;2.65;;;15.40;99.90;;;;;;10551044;28;20201;-80
2023/09/04 04:21:23;;;;;;;4.50;2.38;;;15.50;99.90;;;;;;10565182;28;20239;-86
2023/09/04 04:26:45;;;;;;;6.03;2.45;;;15.50;99.90;;;;;;10564843;28;20189;-87
2023/09/04 04:32:06;;;;;;;5.68;2.63;;;15.50;99.90;;;;;;10565117;28;20479;-87
2023/09/04 04:37:29;;;;;;;4.18;2.45;;;15.50;97.40;;;;;;10550186;28;20231;-85
2023/09/04 04:42:50;;;;;;;3.63;2.45;;;15.50;99.90;;;;;;10549896;28;20205;-88
2023/09/04 04:48:11;;;;;;;3.15;2.10;;;15.50;99.90;;;;;;10564466;28;20198;-87
2023/09/04 04:53:34;;;;;;;6.85;2.90;;;15.50;30.30;;;;;;10549651;28;20233;-87
2023/09/04 04:58:56;;;;;;;6.03;2.58;;;15.50;53.20;;;;;;10524201;28;20228;-84
2023/09/04 05:04:17;;;;;;;4.07;2.05;;;15.60;92.70;;;;;;10507512;28;20194;-84
2023/09/04 05:09:38;;;;;;;5.68;2.70;;;15.70;1.00;;;;;;10507167;28;20197;-87
2023/09/04 05:15:03;;;;;;;6.55;3.15;;;15.70;1.00;;;;;;10535423;28;20186;-85
2023/09/04 05:20:25;;;;;;;4.93;2.42;;;15.70;1.00;;;;;;10520931;28;20403;-86
2023/09/04 05:25:53;;;;;;;3.63;2.50;;;15.80;1.00;;;;;;10533602;28;20357;-87
2023/09/04 05:31:15;;;;;;;8.18;2.70;;;15.90;1.00;;;;;;10520587;28;20423;-84
2023/09/04 05:36:36;;;;;;;7.60;2.92;;;16.00;1.00;;;;;;10548256;28;20201;-84
2023/09/04 05:41:58;;;;;;;3.35;2.20;;;16.00;1.00;;;;;;10505797;28;20210;-85
2023/09/04 05:47:19;;;;;;;4.93;2.50;;;16.20;99.90;;;;;;10536915;28;20232;-81
2023/09/04 05:52:40;;;;;;;6.60;2.88;;;16.30;1.00;;;;;;10519437;28;20304;-83
2023/09/04 05:58:01;;;;;;;4.88;2.60;;;16.30;1.00;;;;;;10570027;28;20225;-84
2023/09/04 06:03:23;;;;;;;3.90;2.30;;;16.30;1.00;;;;;;10561660;28;20265;-85
2023/09/04 06:08:45;;;;;;;3.92;2.20;;;16.40;1.00;;;;;;10561559;28;20269;-82
2023/09/04 06:14:06;;;;;;;4.55;2.30;;;16.40;1.00;;;;;;10546951;28;20201;-86
2023/09/04 06:19:28;;;;;;;8.73;2.80;;;16.50;1.00;;;;;;10561533;28;20270;-83
2023/09/04 06:24:49;;;;;;;3.60;1.98;;;16.60;1.00;;;;;;10561757;28;20193;-87
2023/09/04 06:30:11;;;;;;;4.03;2.45;;;16.70;1.00;;;;;;10541094;28;20204;-84
2023/09/04 06:35:32;;;;;;;5.40;2.40;;;16.70;5.80;;;;;;10554592;28;20418;-85
2023/09/04 06:40:57;;;;;;;3.75;2.30;;;16.80;1.00;;;;;;10555314;28;20263;-87
2023/09/04 06:46:18;;;;;;;7.03;2.75;;;16.90;1.00;;;;;;10574768;28;20194;-85
2023/09/04 06:51:39;;;;;;;4.43;1.83;;;17.00;1.00;;;;;;10555548;28;20241;-86
2023/09/04 06:57:02;;;;;;;3.38;2.10;;;17.10;1.00;;;;;;10553811;28;20206;-88
2023/09/04 07:02:23;;;;;;;6.35;2.88;;;17.30;99.90;;;;;;10568445;28;20515;-87
2023/09/04 07:07:47;;;;;;;3.53;2.60;;;17.40;1.00;;;;;;10539674;28;20368;-87
2023/09/04 07:13:08;;;;;;;4.70;2.30;;;17.50;1.00;;;;;;10567655;28;20281;-85
2023/09/04 07:18:29;;;;;;;3.55;2.30;;;17.70;1.00;;;;;;10539307;28;20233;-87
2023/09/04 07:23:51;;;;;;;4.60;1.90;;;17.80;1.00;;;;;;10553532;28;20186;-85
2023/09/04 07:29:12;;;;;;;6.85;2.20;;;18.00;1.00;;;;;;10567706;28;20191;-84
2023/09/04 07:34:33;;;;;;;5.72;2.53;;;18.20;1.00;;;;;;10552369;28;20202;-79
2023/09/04 07:39:56;;;;;;;5.30;2.65;;;18.60;99.90;;;;;;10551385;28;20236;-81
2023/09/04 07:45:17;;;;;;;3.30;1.90;;;;;;;;;;10552064;28;20187;-80
2023/09/04 07:50:38;;;;;;;4.82;2.20;;;20.10;1.00;;;;;;10551182;28;20199;-85
2023/09/04 07:55:59;;;;;;;5.43;2.00;;;20.60;1.00;;;;;;10553635;28;20528;-80
2023/09/04 08:01:20;;;;;;;5.68;1.90;;;20.80;99.90;;;;;;10551149;28;20300;-84
2023/09/04 08:06:42;;;;;;;7.43;2.30;;;20.80;99.90;;;;;;10551433;28;20190;-86
2023/09/04 08:12:04;;;;;;;9.68;2.58;;;20.70;24.10;;;;;;10550666;28;20202;-81
2023/09/04 08:17:26;;;;;;;4.85;1.80;;;21.30;1.00;;;;;;10564865;28;20213;-82
2023/09/04 08:22:47;;;;;;;3.30;1.75;;;23.10;1.00;;;;;;10565143;28;20384;-89
2023/09/04 08:28:08;;;;;;;6.60;1.83;;;24.70;1.00;;;;;;10564977;28;20187;-85
2023/09/04 08:33:30;;;;;;;4.25;1.60;;;25.00;1.00;;;;;;10564259;28;20250;-85
2023/09/04 08:38:51;;;;;;;4.45;2.00;;;;;;;;;;10564100;28;20455;-82
2023/09/04 08:44:14;;;;;;;3.85;1.65;;;26.20;99.90;;;;;;10522673;28;20233;-82
2023/09/04 08:49:37;;;;;;;2.85;1.20;;;26.80;99.90;;;;;;10538161;28;20190;-87
2023/09/04 08:54:59;;;;;;;4.80;2.08;;;26.10;99.90;;;;;;10549075;28;20237;-85
2023/09/04 09:00:20;;;;;;;6.18;2.13;;;25.40;99.90;;;;;;10548898;28;20420;-86
2023/09/04 09:05:47;;;;;;;3.50;1.73;;;24.80;99.90;;;;;;10548770;28;20217;-83
2023/09/04 09:11:09;;;;;;;4.93;1.83;;;24.10;99.90;;;;;;10564139;28;20384;-85
2023/09/04 09:16:30;;;;;;;9.68;2.80;;;23.60;99.90;;;;;;10562744;28;20197;-82
2023/09/04 09:21:52;;;;;;;4.80;1.73;;;23.40;99.90;;;;;;10562801;28;20301;-86
2023/09/04 09:27:13;;;;;;;3.83;1.80;;;23.20;99.90;;;;;;10548773;28;20202;-88
2023/09/04 09:32:34;;;;;;;9.10;2.55;;;23.20;99.90;;;;;;10533889;28;20202;-86
2023/09/04 09:37:55;;;;;;;4.50;1.95;;;23.30;99.90;;;;;;10562529;28;20218;-84
2023/09/04 09:43:17;;;;;;;5.20;2.28;;;23.40;99.90;;;;;;10533559;28;20206;-86
2023/09/04 09:48:38;;;;;;;2.55;1.65;;;23.50;99.90;;;;;;10547581;28;20243;-82
2023/09/04 09:53:59;;;;;;;6.00;1.90;;;23.20;99.90;;;;;;10547076;28;20234;-87
2023/09/04 09:59:20;;;;;;;3.83;2.03;;;23.60;99.90;;;;;;10561836;28;20218;-81
2023/09/04 10:04:42;;;;;;;3.33;2.00;;;23.40;99.90;;;;;;10547387;28;20203;-85
2023/09/04 10:10:06;;;;;;;2.80;2.10;;;23.90;99.90;;;;;;10546972;28;20273;-81
2023/09/04 10:15:28;;;;;;;4.80;1.60;;;24.00;99.90;;;;;;10547077;28;20206;-87
2023/09/04 10:20:51;;;;;;;3.40;2.08;;;23.90;99.90;;;;;;10560951;28;20226;-86
2023/09/04 10:26:19;;;;;;;4.05;1.48;;;23.90;99.90;;;;;;10518783;28;20191;-81
2023/09/04 10:31:42;;;;;;;2.80;1.58;;;24.10;99.90;;;;;;10504126;28;20421;-80
2023/09/04 10:37:11;;;;;;;1.95;1.80;;;23.90;99.90;;;;;;10536315;28;20198;-81
2023/09/04 10:43:03;;;;;;;3.38;1.60;;;24.10;99.90;;;;;;10560359;28;20206;-81
2023/09/04 10:48:44;;;;;;;5.53;1.77;;;24.70;99.90;;;;;;10546114;28;20199;-81
2023/09/04 10:54:49;;;;;;;6.38;2.47;;;24.60;99.90;;;;;;10545423;28;20449;-83
2023/09/04 11:00:41;;;;;;;6.07;1.42;;;24.60;99.90;;;;;;10560211;28;20230;-82
2023/09/04 11:06:03;;;;;;;1.83;1.38;;;24.70;99.90;;;;;;10531072;28;20275;-81
2023/09/04 11:11:26;;;;;;;3.40;1.40;;;25.40;99.90;;;;;;10545571;28;20273;-81
2023/09/04 11:16:50;;;;;;;3.47;1.70;;;26.20;99.90;;;;;;10552996;28;20375;-83
2023/09/04 11:22:21;;;;;;;7.22;2.08;;;26.80;99.90;;;;;;10568669;28;20218;-81
2023/09/04 11:27:46;;;;;;;8.30;1.70;;;27.20;99.90;;;;;;10566668;28;20362;-81
2023/09/04 11:33:12;;;;;;;1.50;1.40;;;27.80;99.90;;;;;;10552942;28;20202;-81
2023/09/04 11:38:34;;;;;;;4.63;1.38;;;27.50;99.90;;;;;;10552341;28;20252;-87
2023/09/04 11:43:55;;;;;;;7.05;1.73;;;28.10;99.90;;;;;;10566736;28;20197;-84
2023/09/04 11:49:17;;;;;;;2.63;1.40;;;27.50;99.90;;;;;;10566456;28;20244;-81
2023/09/04 11:54:42;;;;;;;8.85;1.85;;;26.80;99.90;;;;;;10566027;28;20234;-82
2023/09/04 12:00:05;;;;;;;5.55;1.90;;;26.60;99.90;;;;;;10567254;28;20585;-83
2023/09/04 12:05:34;;;;;;;4.70;2.17;;;25.90;99.90;;;;;;10565697;28;20276;-88
2023/09/04 12:10:56;;;;;;;2.95;1.77;;;25.30;99.90;;;;;;10565713;28;20202;-84
2023/09/04 12:16:17;;;;;;;2.65;1.95;;;24.70;99.90;;;;;;10565508;28;20199;-90
2023/09/04 12:21:39;;;;;;;2.33;1.67;;;24.70;99.90;;;;;;10536928;28;20314;-85
2023/09/04 12:27:01;;;;;;;3.15;1.45;;;25.10;99.90;;;;;;10549708;28;20206;-84
2023/09/04 12:32:23;;;;;;;2.00;1.48;;;25.10;99.90;;;;;;10564322;28;20187;-84
2023/09/04 12:37:45;;;;;;;4.80;1.80;;;25.00;99.90;;;;;;10549842;28;20214;-83
